createdAt,value
2019-06-26T00:00:10.274Z,12.40
2019-06-26T00:02:41.317Z,14.07
2019-06-26T00:05:11.053Z,11.00
2019-06-26T00:07:40.361Z,14.15
2019-06-26T00:10:10.194Z,13.83
2019-06-26T00:12:39.535Z,12.60
2019-06-26T00:15:09.612Z,10.05
2019-06-26T00:17:38.918Z,12.07
2019-06-26T00:20:09.028Z,12.00
2019-06-26T00:22:38.338Z,12.50
2019-06-26T00:25:07.704Z,13.25
2019-06-26T00:27:37.003Z,12.20
2019-06-26T00:30:09.824Z,13.03
2019-06-26T00:32:40.243Z,12.28
2019-06-26T00:35:09.648Z,15.00
2019-06-26T00:37:38.970Z,15.00
2019-06-26T00:40:08.430Z,12.80
2019-06-26T00:42:37.816Z,15.58
2019-06-26T00:45:07.352Z,12.73
2019-06-26T00:47:36.669Z,13.68
2019-06-26T00:50:08.115Z,12.63
2019-06-26T00:52:37.425Z,13.18
2019-06-26T00:55:07.163Z,12.07
2019-06-26T00:57:37.627Z,12.80
2019-06-26T01:00:10.705Z,13.22
2019-06-26T01:02:40.076Z,14.05
2019-06-26T01:05:11.293Z,12.33
2019-06-26T01:07:42.256Z,12.35
2019-06-26T01:10:14.220Z,13.28
2019-06-26T01:12:43.615Z,16.73
2019-06-26T01:15:13.243Z,13.50
2019-06-26T01:17:43.500Z,13.62
2019-06-26T01:20:13.639Z,14.63
2019-06-26T01:22:42.936Z,15.58
2019-06-26T01:25:12.675Z,15.00
2019-06-26T01:27:42.189Z,13.95
2019-06-26T01:30:12.129Z,12.88
2019-06-26T01:32:41.439Z,15.88
2019-06-26T01:35:11.794Z,15.03
2019-06-26T01:37:41.095Z,13.43
2019-06-26T01:40:10.645Z,13.32
2019-06-26T01:42:39.966Z,13.62
2019-06-26T01:45:09.614Z,17.05
2019-06-26T01:47:38.975Z,17.35
2019-06-26T01:50:09.226Z,12.73
2019-06-26T01:52:38.525Z,12.90
2019-06-26T01:55:08.003Z,18.75
2019-06-26T01:57:37.312Z,12.93
2019-06-26T02:00:08.683Z,12.05
2019-06-26T02:02:38.951Z,13.65
2019-06-26T02:05:09.004Z,13.88
2019-06-26T02:07:38.294Z,12.70
2019-06-26T02:10:07.976Z,15.28
2019-06-26T02:12:38.386Z,15.03
2019-06-26T02:15:08.341Z,12.90
2019-06-26T02:17:37.640Z,19.67
2019-06-26T02:20:07.724Z,12.88
2019-06-26T02:22:37.064Z,15.50
2019-06-26T02:25:07.017Z,14.63
2019-06-26T02:27:36.472Z,12.60
2019-06-26T02:30:08.411Z,16.25
2019-06-26T02:32:37.709Z,17.37
2019-06-26T02:35:09.913Z,13.45
2019-06-26T02:37:38.724Z,13.68
2019-06-26T02:40:09.167Z,20.57
2019-06-26T02:42:39.476Z,15.65
2019-06-26T02:45:09.903Z,11.73
2019-06-26T02:47:39.196Z,16.85
2019-06-26T02:50:10.398Z,12.68
2019-06-26T02:52:40.821Z,16.70
2019-06-26T02:55:10.307Z,13.38
2019-06-26T02:57:39.604Z,13.55
2019-06-26T03:00:09.052Z,13.93
2019-06-26T03:02:38.444Z,15.90
2019-06-26T03:05:08.084Z,15.55
2019-06-26T03:07:37.388Z,19.32
2019-06-26T03:10:10.244Z,15.08
2019-06-26T03:12:39.569Z,15.20
2019-06-26T03:15:09.780Z,16.87
2019-06-26T03:17:54.244Z,15.75
2019-06-26T03:20:12.766Z,13.18
2019-06-26T03:22:42.062Z,15.43
2019-06-26T03:25:11.383Z,18.48
2019-06-26T03:27:46.448Z,18.95
2019-06-26T03:30:17.777Z,20.37
2019-06-26T03:32:47.083Z,15.38
2019-06-26T03:35:16.603Z,18.85
2019-06-26T03:37:46.935Z,16.77
2019-06-26T03:40:16.430Z,16.67
2019-06-26T03:42:45.864Z,14.23
2019-06-26T03:45:25.788Z,16.93
2019-06-26T03:47:47.230Z,16.97
2019-06-26T03:50:16.619Z,20.00
2019-06-26T03:52:47.837Z,19.75
2019-06-26T03:55:20.464Z,17.32
2019-06-26T03:57:49.763Z,13.35
2019-06-26T04:00:36.550Z,16.17
2019-06-26T04:03:05.832Z,13.80
2019-06-26T04:05:35.759Z,20.15
2019-06-26T04:08:05.388Z,18.07
2019-06-26T04:10:35.859Z,16.73
2019-06-26T04:13:06.235Z,15.43
2019-06-26T04:15:42.040Z,18.92
2019-06-26T04:18:06.617Z,20.60
2019-06-26T04:20:35.955Z,16.15
2019-06-26T04:23:05.302Z,12.63
2019-06-26T04:25:37.859Z,15.15
2019-06-26T04:28:06.538Z,19.32
2019-06-26T04:30:35.969Z,14.03
2019-06-26T04:33:05.417Z,21.55
2019-06-26T04:35:34.719Z,17.57
2019-06-26T04:38:04.114Z,12.85
2019-06-26T04:40:34.324Z,14.00
2019-06-26T04:43:07.140Z,13.58
2019-06-26T04:45:57.124Z,14.85
2019-06-26T04:48:22.352Z,13.95
2019-06-26T04:50:58.371Z,14.33
2019-06-26T04:53:34.124Z,12.40
2019-06-26T04:56:04.977Z,14.58
2019-06-26T04:58:34.264Z,19.30
2019-06-26T05:01:04.458Z,18.15
2019-06-26T05:03:34.660Z,13.80
2019-06-26T05:06:05.812Z,15.35
2019-06-26T05:08:35.132Z,14.43
2019-06-26T05:11:04.420Z,20.75
2019-06-26T05:13:35.796Z,20.12
2019-06-26T05:16:15.644Z,17.77
2019-06-26T05:18:42.103Z,21.75
2019-06-26T05:21:12.333Z,23.38
2019-06-26T05:23:43.611Z,23.42
2019-06-26T05:26:13.863Z,21.80
2019-06-26T05:28:49.539Z,23.98
2019-06-26T05:33:48.334Z,23.30
2019-06-26T05:36:17.689Z,26.75
2019-06-26T05:38:47.052Z,29.25
2019-06-26T05:41:19.302Z,29.75
2019-06-26T05:43:48.681Z,29.85
2019-06-26T05:46:30.618Z,26.77
2019-06-26T05:48:49.071Z,26.80
2019-06-26T05:51:18.376Z,25.95
2019-06-26T05:53:51.593Z,24.95
2019-06-26T05:56:20.991Z,22.65
2019-06-26T05:58:51.330Z,23.07
2019-06-26T06:01:21.838Z,22.82
2019-06-26T06:03:51.172Z,20.17
2019-06-26T06:06:21.397Z,19.95
2019-06-26T06:08:50.704Z,19.05
2019-06-26T06:11:20.062Z,18.42
2019-06-26T06:13:49.393Z,19.65
2019-06-26T06:16:18.785Z,18.00
2019-06-26T06:18:48.162Z,17.65
2019-06-26T06:21:17.464Z,18.00
2019-06-26T06:23:46.924Z,18.20
2019-06-26T06:26:17.188Z,18.87
2019-06-26T06:28:46.509Z,17.98
2019-06-26T06:31:15.818Z,18.55
2019-06-26T06:33:45.691Z,14.93
2019-06-26T06:36:15.039Z,15.60
2019-06-26T06:38:44.361Z,14.73
2019-06-26T06:41:13.780Z,16.05
2019-06-26T06:43:43.138Z,16.85
2019-06-26T06:46:12.516Z,16.82
2019-06-26T06:48:42.795Z,14.80
2019-06-26T06:51:12.100Z,16.00
2019-06-26T06:53:43.389Z,14.00
2019-06-26T06:56:12.722Z,13.50
2019-06-26T06:58:42.019Z,17.25
2019-06-26T07:01:11.328Z,12.90
2019-06-26T07:03:40.631Z,14.53
2019-06-26T07:06:09.949Z,12.80
2019-06-26T07:08:39.248Z,12.35
2019-06-26T07:11:08.646Z,10.98
2019-06-26T07:13:38.019Z,12.18
2019-06-26T07:16:07.323Z,11.20
2019-06-26T07:18:36.611Z,10.70
2019-06-26T07:21:05.910Z,11.65
2019-06-26T07:23:35.225Z,10.48
2019-06-26T07:26:05.582Z,10.98
2019-06-26T07:28:34.889Z,10.48
2019-06-26T07:31:04.256Z,10.72
2019-06-26T07:33:33.544Z,16.85
2019-06-26T07:36:02.849Z,11.80
2019-06-26T07:38:32.140Z,10.10
2019-06-26T07:41:01.454Z,9.40
2019-06-26T07:43:30.742Z,9.68
2019-06-26T07:46:00.106Z,9.45
2019-06-26T07:48:29.395Z,8.53
2019-06-26T07:50:58.687Z,8.95
2019-06-26T07:53:27.995Z,8.73
2019-06-26T07:55:57.302Z,9.53
2019-06-26T07:58:26.639Z,10.70
2019-06-26T08:00:55.959Z,8.28
2019-06-26T08:03:25.241Z,9.10
2019-06-26T08:05:54.533Z,9.38
2019-06-26T08:08:23.869Z,10.48
2019-06-26T08:10:53.228Z,10.10
2019-06-26T08:13:22.540Z,12.55
2019-06-26T08:15:51.839Z,9.23
2019-06-26T08:18:21.123Z,10.28
2019-06-26T08:21:10.604Z,9.53
2019-06-26T08:23:21.411Z,9.35
2019-06-26T08:25:50.710Z,8.78
2019-06-26T08:28:19.994Z,9.45
2019-06-26T08:30:49.287Z,8.23
2019-06-26T08:33:18.636Z,10.18
2019-06-26T08:35:47.919Z,12.63
2019-06-26T08:38:17.228Z,9.03
2019-06-26T08:40:46.526Z,9.03
2019-06-26T08:43:15.955Z,11.28
2019-06-26T08:45:46.340Z,8.20
2019-06-26T08:48:28.124Z,8.35
2019-06-26T08:50:46.886Z,8.40
2019-06-26T08:53:16.221Z,8.23
2019-06-26T08:55:45.491Z,9.73
2019-06-26T08:58:14.784Z,9.60
2019-06-26T09:00:44.072Z,8.00
2019-06-26T09:03:13.370Z,9.20
2019-06-26T09:05:47.988Z,9.55
2019-06-26T09:08:13.844Z,10.03
2019-06-26T09:10:45.077Z,9.68
2019-06-26T09:13:14.324Z,8.55
2019-06-26T09:15:44.564Z,32.73
2019-06-26T09:18:13.868Z,19.52
2019-06-26T09:20:43.296Z,17.32
2019-06-26T09:23:12.591Z,9.48
2019-06-26T09:25:41.893Z,11.20
2019-06-26T09:28:11.253Z,7.83
2019-06-26T09:30:40.688Z,7.30
2019-06-26T09:33:10.090Z,7.33
2019-06-26T09:35:39.443Z,8.58
2019-06-26T09:38:08.743Z,9.03
2019-06-26T09:40:38.023Z,7.53
2019-06-26T09:43:08.301Z,7.37
2019-06-26T09:45:37.579Z,8.25
2019-06-26T09:48:06.877Z,9.68
2019-06-26T09:50:36.155Z,9.15
2019-06-26T09:53:05.768Z,7.78
2019-06-26T09:55:35.125Z,7.20
2019-06-26T09:58:04.503Z,7.33
2019-06-26T10:00:33.871Z,6.10
2019-06-26T10:03:03.179Z,9.28
2019-06-26T10:05:32.459Z,6.67
2019-06-26T10:08:01.757Z,8.70
2019-06-26T10:10:31.046Z,6.55
2019-06-26T10:13:00.335Z,6.67
2019-06-26T10:15:29.636Z,8.60
2019-06-26T10:17:59.090Z,7.83
2019-06-26T10:20:28.417Z,6.75
2019-06-26T10:22:57.734Z,8.30
2019-06-26T10:25:27.036Z,6.08
2019-06-26T10:27:56.374Z,5.45
2019-06-26T10:30:25.735Z,6.10
2019-06-26T10:32:55.031Z,5.95
2019-06-26T10:35:24.351Z,7.62
2019-06-26T10:37:53.650Z,6.45
2019-06-26T10:40:22.944Z,6.05
2019-06-26T10:42:52.260Z,5.90
2019-06-26T10:45:21.698Z,6.22
2019-06-26T10:47:51.052Z,5.97
2019-06-26T10:50:20.531Z,5.58
2019-06-26T10:52:49.812Z,6.05
2019-06-26T10:55:19.356Z,7.75
2019-06-26T10:57:48.771Z,6.33
2019-06-26T11:00:18.633Z,6.08
2019-06-26T11:02:47.975Z,12.37
2019-06-26T11:05:17.742Z,6.78
2019-06-26T11:07:47.030Z,7.37
2019-06-26T11:10:16.592Z,7.10
2019-06-26T11:12:48.939Z,6.42
2019-06-26T11:15:18.369Z,6.05
2019-06-26T11:17:47.726Z,6.80
2019-06-26T11:20:17.259Z,6.75
2019-06-26T11:22:46.539Z,6.55
2019-06-26T11:25:18.986Z,7.70
2019-06-26T11:27:48.384Z,7.50
2019-06-26T11:30:20.003Z,5.97
2019-06-26T11:32:49.296Z,6.45
2019-06-26T11:35:19.647Z,5.35
2019-06-26T11:37:48.957Z,6.87
2019-06-26T11:40:18.673Z,7.12
2019-06-26T11:42:47.946Z,9.15
2019-06-26T11:45:17.844Z,7.12
2019-06-26T11:47:47.130Z,7.80
2019-06-26T11:50:17.088Z,7.65
2019-06-26T11:52:46.371Z,6.97
2019-06-26T11:55:16.609Z,6.50
2019-06-26T11:57:46.061Z,7.05
2019-06-26T12:00:21.119Z,6.35
2019-06-26T12:02:50.411Z,6.13
2019-06-26T12:05:20.035Z,6.53
2019-06-26T12:07:50.354Z,8.45
2019-06-26T12:10:20.946Z,10.43
2019-06-26T12:12:50.351Z,8.13
2019-06-26T12:15:21.594Z,8.15
2019-06-26T12:17:51.084Z,6.17
2019-06-26T12:20:21.487Z,7.40
2019-06-26T12:22:50.831Z,8.78
2019-06-26T12:25:20.155Z,8.25
2019-06-26T12:27:49.445Z,6.58
2019-06-26T12:30:19.385Z,9.75
2019-06-26T12:33:02.176Z,6.55
2019-06-26T12:35:19.763Z,6.62
2019-06-26T12:37:49.052Z,6.35
2019-06-26T12:40:18.700Z,7.08
2019-06-26T12:42:47.989Z,6.12
2019-06-26T12:45:17.627Z,8.68
2019-06-26T12:47:46.919Z,6.72
2019-06-26T12:50:34.174Z,8.70
2019-06-26T12:52:49.232Z,6.92
2019-06-26T12:55:18.592Z,8.20
2019-06-26T12:57:47.893Z,6.17
2019-06-26T13:00:17.830Z,8.53
2019-06-26T13:02:47.125Z,9.55
2019-06-26T13:05:16.674Z,6.00
2019-06-26T13:07:45.980Z,7.87
2019-06-26T13:10:16.981Z,5.95
2019-06-26T13:12:47.417Z,11.97
2019-06-26T13:15:44.960Z,9.70
2019-06-26T13:18:14.274Z,9.60
2019-06-26T13:20:52.567Z,7.00
2019-06-26T13:23:17.578Z,9.25
2019-06-26T13:25:46.926Z,7.45
2019-06-26T13:28:22.706Z,8.33
2019-06-26T13:30:53.498Z,7.97
2019-06-26T13:33:43.758Z,7.42
2019-06-26T13:36:16.838Z,8.65
2019-06-26T13:38:47.128Z,7.40
2019-06-26T13:41:16.458Z,9.45
2019-06-26T13:43:47.716Z,9.45
2019-06-26T13:46:17.002Z,6.30
2019-06-26T13:49:10.492Z,6.47
2019-06-26T13:51:39.788Z,11.35
2019-06-26T13:54:09.091Z,7.70
2019-06-26T13:56:39.365Z,8.85
2019-06-26T13:59:08.660Z,6.80
2019-06-26T14:01:37.952Z,7.92
2019-06-26T14:04:07.340Z,10.58
2019-06-26T14:06:36.719Z,10.32
2019-06-26T14:09:07.512Z,6.22
2019-06-26T14:11:36.801Z,8.15
2019-06-26T14:14:06.101Z,9.15
2019-06-26T14:16:35.394Z,6.83
2019-06-26T14:19:04.767Z,11.25
2019-06-26T14:21:34.058Z,8.65
2019-06-26T14:24:03.426Z,8.70
2019-06-26T14:26:32.711Z,10.35
2019-06-26T14:29:02.038Z,9.55
2019-06-26T14:31:31.313Z,9.08
2019-06-26T14:34:00.641Z,10.78
2019-06-26T14:36:30.931Z,7.58
2019-06-26T14:39:00.305Z,9.53
2019-06-26T14:41:29.615Z,10.25
2019-06-26T14:43:58.904Z,9.85
2019-06-26T14:46:28.202Z,8.53
2019-06-26T14:48:58.476Z,7.40
2019-06-26T14:51:41.886Z,9.23
2019-06-26T14:53:58.793Z,9.25
2019-06-26T14:56:28.084Z,8.60
2019-06-26T14:58:57.378Z,10.25
2019-06-26T15:01:28.633Z,9.83
2019-06-26T15:03:57.996Z,7.62
2019-06-26T15:06:27.369Z,11.25
2019-06-26T15:08:56.750Z,10.30
2019-06-26T15:11:26.077Z,8.33
2019-06-26T15:13:55.392Z,9.65
2019-06-26T15:16:24.748Z,12.25
2019-06-26T15:18:54.039Z,6.78
2019-06-26T15:21:23.333Z,10.60
2019-06-26T15:23:52.639Z,10.53
2019-06-26T15:26:21.956Z,10.18
2019-06-26T15:28:51.338Z,13.78
2019-06-26T15:31:20.637Z,15.83
2019-06-26T15:33:49.941Z,9.95
2019-06-26T15:36:19.329Z,7.67
2019-06-26T15:38:48.630Z,12.82
2019-06-26T15:41:18.009Z,9.13
2019-06-26T15:43:47.315Z,13.35
2019-06-26T15:46:16.656Z,10.13
2019-06-26T15:48:50.188Z,10.75
2019-06-26T15:51:19.162Z,10.30
2019-06-26T15:53:48.564Z,11.30
2019-06-26T15:56:17.869Z,11.08
2019-06-26T15:58:47.154Z,8.70
2019-06-26T16:01:29.922Z,12.78
2019-06-26T16:03:59.299Z,12.35
2019-06-26T16:06:28.612Z,10.13
2019-06-26T16:08:58.003Z,11.88
2019-06-26T16:11:27.314Z,11.38
2019-06-26T16:13:56.675Z,11.85
2019-06-26T16:16:26.042Z,10.05
2019-06-26T16:19:00.137Z,11.85
2019-06-26T16:21:29.589Z,11.57
2019-06-26T16:23:58.923Z,9.20
2019-06-26T16:26:28.272Z,10.80
2019-06-26T16:28:57.583Z,8.28
2019-06-26T16:31:27.998Z,12.00
2019-06-26T16:33:57.464Z,10.35
2019-06-26T16:36:26.761Z,8.65
2019-06-26T16:38:56.060Z,10.00
2019-06-26T16:41:25.372Z,8.70
2019-06-26T16:43:54.748Z,9.00
2019-06-26T16:46:24.070Z,9.68
2019-06-26T16:48:53.385Z,13.05
2019-06-26T16:51:22.801Z,9.78
2019-06-26T16:53:52.162Z,10.40
2019-06-26T16:56:21.480Z,11.22
2019-06-26T16:58:50.902Z,13.43
2019-06-26T17:01:20.215Z,9.93
2019-06-26T17:03:49.510Z,12.73
2019-06-26T17:06:18.865Z,13.35
2019-06-26T17:08:48.166Z,9.98
2019-06-26T17:11:17.505Z,11.30
2019-06-26T17:13:46.817Z,12.90
2019-06-26T17:16:16.156Z,11.75
2019-06-26T17:18:45.450Z,19.35
2019-06-26T17:21:14.767Z,12.30
2019-06-26T17:23:44.075Z,13.78
2019-06-26T17:26:13.390Z,17.60
2019-06-26T17:28:42.701Z,13.80
2019-06-26T17:31:12.060Z,12.43
2019-06-26T17:33:41.458Z,13.30
2019-06-26T17:36:10.812Z,10.15
2019-06-26T17:38:40.553Z,11.85
2019-06-26T17:41:09.934Z,9.55
2019-06-26T17:43:39.255Z,7.28
2019-06-26T17:46:08.621Z,9.93
2019-06-26T17:48:38.037Z,9.98
2019-06-26T17:51:07.363Z,12.05
2019-06-26T17:53:36.651Z,7.72
2019-06-26T17:56:06.041Z,10.43
2019-06-26T17:58:35.342Z,18.60
2019-06-26T18:01:04.681Z,12.28
2019-06-26T18:03:34.008Z,12.93
2019-06-26T18:06:03.364Z,13.88
2019-06-26T18:08:32.742Z,11.18
2019-06-26T18:11:02.095Z,12.58
2019-06-26T18:13:31.454Z,10.23
2019-06-26T18:16:00.830Z,10.40
2019-06-26T18:18:30.162Z,12.45
2019-06-26T18:20:59.509Z,9.88
2019-06-26T18:23:37.955Z,11.08
2019-06-26T18:26:12.246Z,9.80
2019-06-26T18:28:30.873Z,10.50
2019-06-26T18:31:00.250Z,11.38
2019-06-26T18:33:29.546Z,13.43
2019-06-26T18:35:58.856Z,9.90
2019-06-26T18:38:28.175Z,11.18
2019-06-26T18:40:57.483Z,16.00
2019-06-26T18:43:26.825Z,7.17
2019-06-26T18:45:56.123Z,14.70
2019-06-26T18:48:25.460Z,11.95
2019-06-26T18:50:54.750Z,11.53
2019-06-26T18:53:24.139Z,11.38
2019-06-26T18:55:53.613Z,12.33
2019-06-26T18:58:22.959Z,11.20
2019-06-26T19:00:52.269Z,14.40
2019-06-26T19:03:21.603Z,10.32
2019-06-26T19:05:50.972Z,10.48
2019-06-26T19:08:20.275Z,10.90
2019-06-26T19:10:49.591Z,17.12
2019-06-26T19:13:20.442Z,15.78
2019-06-26T19:15:55.365Z,11.43
2019-06-26T19:18:26.345Z,12.03
2019-06-26T19:20:55.639Z,17.85
2019-06-26T19:23:24.990Z,15.53
2019-06-26T19:25:54.282Z,15.83
2019-06-26T19:28:23.599Z,13.95
2019-06-26T19:30:52.932Z,13.53
2019-06-26T19:33:22.235Z,15.70
2019-06-26T19:35:51.883Z,16.65
2019-06-26T19:38:21.354Z,10.78
2019-06-26T19:40:50.742Z,13.28
2019-06-26T19:43:32.380Z,12.55
2019-06-26T19:46:01.678Z,11.83
2019-06-26T19:48:31.004Z,16.20
2019-06-26T19:51:00.279Z,15.58
2019-06-26T19:53:31.010Z,12.05
2019-06-26T19:56:00.284Z,9.50
2019-06-26T19:58:29.718Z,13.93
2019-06-26T20:00:59.016Z,12.82
2019-06-26T20:03:28.339Z,12.53
2019-06-26T20:05:57.639Z,16.90
2019-06-26T20:08:27.020Z,13.10
2019-06-26T20:10:56.344Z,16.57
2019-06-26T20:13:25.730Z,17.15
2019-06-26T20:16:10.266Z,12.10
2019-06-26T20:18:41.255Z,16.17
2019-06-26T20:21:10.539Z,14.75
2019-06-26T20:23:40.806Z,18.90
2019-06-26T20:26:10.108Z,15.75
2019-06-26T20:28:40.965Z,16.57
2019-06-26T20:31:10.275Z,17.98
2019-06-26T20:33:39.596Z,13.43
2019-06-26T20:36:08.894Z,15.00
2019-06-26T20:38:38.232Z,15.45
2019-06-26T20:41:07.635Z,16.07
2019-06-26T20:43:37.038Z,12.33
2019-06-26T20:46:06.434Z,16.80
2019-06-26T20:48:35.816Z,20.05
2019-06-26T20:51:05.146Z,15.63
2019-06-26T20:53:34.468Z,14.83
2019-06-26T20:56:05.578Z,11.95
2019-06-26T20:58:34.764Z,17.65
2019-06-26T21:01:04.151Z,15.45
2019-06-26T21:03:33.480Z,16.80
2019-06-26T21:06:02.955Z,14.83
2019-06-26T21:08:32.261Z,16.65
2019-06-26T21:11:01.591Z,14.53
2019-06-26T21:13:30.897Z,19.77
2019-06-26T21:16:00.223Z,13.20
2019-06-26T21:18:29.596Z,17.35
2019-06-26T21:20:58.905Z,15.65
2019-06-26T21:23:28.204Z,14.38
2019-06-26T21:25:57.568Z,18.82
2019-06-26T21:28:26.878Z,13.50
2019-06-26T21:30:56.206Z,16.95
2019-06-26T21:33:25.496Z,15.08
2019-06-26T21:35:55.950Z,13.65
2019-06-26T21:38:25.269Z,15.40
2019-06-26T21:40:54.572Z,11.75
2019-06-26T21:43:23.897Z,15.15
2019-06-26T21:45:53.273Z,15.63
2019-06-26T21:48:22.579Z,11.55
2019-06-26T21:50:51.920Z,12.37
2019-06-26T21:53:21.279Z,14.68
2019-06-26T21:56:09.066Z,13.18
2019-06-26T21:58:56.761Z,17.62
2019-06-26T22:01:43.939Z,14.98
2019-06-26T22:04:31.213Z,15.28
2019-06-26T22:07:14.737Z,17.73
2019-06-26T22:09:54.551Z,17.52
2019-06-26T22:12:24.012Z,17.57
2019-06-26T22:14:53.382Z,14.28
2019-06-26T22:17:22.692Z,14.80
2019-06-26T22:19:52.027Z,16.57
2019-06-26T22:22:21.339Z,17.80
2019-06-26T22:24:50.699Z,15.50
2019-06-26T22:27:20.051Z,14.58
2019-06-26T22:29:49.466Z,15.72
2019-06-26T22:32:18.799Z,15.58
2019-06-26T22:34:48.311Z,14.05
2019-06-26T22:37:18.666Z,14.87
2019-06-26T22:39:47.981Z,14.30
2019-06-26T22:42:17.308Z,17.02
2019-06-26T22:44:46.656Z,18.32
2019-06-26T22:47:16.042Z,18.27
2019-06-26T22:49:45.371Z,17.82
2019-06-26T22:52:14.695Z,17.80
2019-06-26T22:54:44.007Z,18.87
2019-06-26T22:57:13.336Z,19.98
2019-06-26T22:59:42.649Z,17.70
2019-06-26T23:02:11.980Z,17.32
2019-06-26T23:04:41.363Z,17.30
2019-06-26T23:07:11.761Z,13.50
2019-06-26T23:09:41.146Z,14.13
2019-06-26T23:12:10.611Z,14.25
2019-06-26T23:14:39.921Z,13.30
2019-06-26T23:17:09.272Z,25.30
2019-06-26T23:19:38.601Z,15.45
2019-06-26T23:22:07.999Z,16.67
2019-06-26T23:24:37.314Z,15.53
2019-06-26T23:27:06.755Z,14.58
2019-06-26T23:29:36.139Z,16.55
2019-06-26T23:32:05.481Z,15.25
2019-06-26T23:34:34.784Z,16.00
2019-06-26T23:37:04.142Z,19.60
2019-06-26T23:39:33.459Z,16.45
2019-06-26T23:42:03.125Z,19.75
2019-06-26T23:44:32.439Z,19.30
2019-06-26T23:47:01.835Z,18.35
2019-06-26T23:49:31.164Z,18.10
2019-06-26T23:52:00.885Z,18.40
2019-06-26T23:54:30.262Z,18.27
2019-06-26T23:56:59.641Z,18.37
2019-06-26T23:59:29.064Z,17.40
